createdAt,value
2018-06-09T00:00:01.760Z,99977
2018-06-09T00:02:30.592Z,99973
2018-06-09T00:04:59.437Z,99974
2018-06-09T00:07:28.291Z,99977
2018-06-09T00:09:57.156Z,99977
2018-06-09T00:12:25.994Z,99969
2018-06-09T00:14:54.847Z,99968
2018-06-09T00:17:23.678Z,99964
2018-06-09T00:19:52.521Z,99968
2018-06-09T00:22:21.357Z,99972
2018-06-09T00:24:50.203Z,99971
2018-06-09T00:27:19.032Z,99973
2018-06-09T00:29:47.869Z,99964
2018-06-09T00:32:16.718Z,99963
2018-06-09T00:34:45.561Z,99967
2018-06-09T00:37:14.395Z,99963
2018-06-09T00:39:43.248Z,99967
2018-06-09T00:42:12.077Z,99968
2018-06-09T00:44:40.916Z,99971
2018-06-09T00:47:09.763Z,99970
2018-06-09T00:49:38.594Z,99972
2018-06-09T00:52:07.438Z,99964
2018-06-09T00:54:36.277Z,99969
2018-06-09T00:57:05.117Z,99964
2018-06-09T00:59:33.951Z,99969
2018-06-09T01:02:02.795Z,99960
2018-06-09T01:04:31.629Z,99972
2018-06-09T01:07:00.480Z,99977
2018-06-09T01:09:29.318Z,99978
2018-06-09T01:11:58.168Z,99968
2018-06-09T01:14:27.014Z,99982
2018-06-09T01:16:55.863Z,99978
2018-06-09T01:19:24.709Z,99977
2018-06-09T01:21:53.673Z,99982
2018-06-09T01:24:22.391Z,99991
2018-06-09T01:26:51.234Z,100000
2018-06-09T01:29:20.076Z,100000
2018-06-09T01:31:48.913Z,99998
2018-06-09T01:34:17.756Z,100002
2018-06-09T01:36:46.598Z,99997
2018-06-09T01:39:15.443Z,99996
2018-06-09T01:41:44.278Z,99996
2018-06-09T01:44:13.116Z,99998
2018-06-09T01:46:41.946Z,99991
2018-06-09T01:49:10.787Z,99990
2018-06-09T01:51:39.627Z,99995
2018-06-09T01:54:08.490Z,99986
2018-06-09T01:56:37.319Z,99979
2018-06-09T01:59:06.332Z,99975
2018-06-09T02:01:35.196Z,99966
2018-06-09T02:04:04.032Z,99974
2018-06-09T02:06:32.883Z,99972
2018-06-09T02:09:01.713Z,99973
2018-06-09T02:11:30.564Z,99974
2018-06-09T02:13:59.410Z,99989
2018-06-09T02:16:28.257Z,99987
2018-06-09T02:18:57.103Z,99987
2018-06-09T02:21:25.953Z,99986
2018-06-09T02:23:54.802Z,99990
2018-06-09T02:26:23.635Z,99997
2018-06-09T02:28:52.484Z,99990
2018-06-09T02:31:21.327Z,99994
2018-06-09T02:33:50.165Z,99994
2018-06-09T02:36:19.016Z,99997
2018-06-09T02:38:47.860Z,99999
2018-06-09T02:41:16.692Z,99997
2018-06-09T02:43:45.547Z,100006
2018-06-09T02:46:14.388Z,100003
2018-06-09T02:48:43.235Z,100003
2018-06-09T02:51:12.074Z,99994
2018-06-09T02:53:40.918Z,100002
2018-06-09T02:56:09.759Z,99995
2018-06-09T02:58:38.600Z,99996
2018-06-09T03:01:07.428Z,99997
2018-06-09T03:03:36.266Z,99995
2018-06-09T03:06:05.113Z,99989
2018-06-09T03:08:33.948Z,99991
2018-06-09T03:11:02.799Z,100000
2018-06-09T03:13:31.645Z,99993
2018-06-09T03:16:00.486Z,99993
2018-06-09T03:18:29.327Z,99990
2018-06-09T03:20:58.165Z,99985
2018-06-09T03:23:27.006Z,99981
2018-06-09T03:25:55.846Z,99986
2018-06-09T03:28:24.684Z,99984
2018-06-09T03:30:53.523Z,99984
2018-06-09T03:33:22.363Z,99985
2018-06-09T03:35:51.215Z,99986
2018-06-09T03:38:20.055Z,99987
2018-06-09T03:40:48.895Z,99984
2018-06-09T03:43:17.808Z,99989
2018-06-09T03:45:46.575Z,99997
2018-06-09T03:48:15.412Z,100004
2018-06-09T03:50:44.254Z,100003
2018-06-09T03:53:13.104Z,100003
2018-06-09T03:55:41.943Z,99996
2018-06-09T03:58:10.840Z,99995
2018-06-09T04:00:39.672Z,99997
2018-06-09T04:03:08.519Z,100006
2018-06-09T04:05:37.365Z,100015
2018-06-09T04:08:06.199Z,100018
2018-06-09T04:10:35.044Z,100021
2018-06-09T04:13:03.893Z,100026
2018-06-09T04:15:32.752Z,100027
2018-06-09T04:18:01.581Z,100031
2018-06-09T04:20:30.423Z,100035
2018-06-09T04:22:59.266Z,100036
2018-06-09T04:25:28.130Z,100041
2018-06-09T04:27:56.970Z,100038
2018-06-09T04:30:25.819Z,100033
2018-06-09T04:32:54.673Z,100038
2018-06-09T04:35:23.516Z,100030
2018-06-09T04:37:52.384Z,100027
2018-06-09T04:40:21.228Z,100030
2018-06-09T04:42:50.069Z,100044
2018-06-09T04:45:18.909Z,100041
2018-06-09T04:47:47.748Z,100038
2018-06-09T04:50:16.595Z,100033
2018-06-09T04:52:45.449Z,100041
2018-06-09T04:55:14.303Z,100042
2018-06-09T04:57:43.158Z,100043
2018-06-09T05:00:12.008Z,100044
2018-06-09T05:02:40.859Z,100053
2018-06-09T05:05:09.704Z,100048
2018-06-09T05:07:38.547Z,100051
2018-06-09T05:10:07.387Z,100059
2018-06-09T05:12:36.233Z,100052
2018-06-09T05:15:05.063Z,100066
2018-06-09T05:17:33.904Z,100067
2018-06-09T05:20:02.747Z,100076
2018-06-09T05:22:31.581Z,100065
2018-06-09T05:25:00.423Z,100073
2018-06-09T05:27:29.259Z,100063
2018-06-09T05:29:58.118Z,100068
2018-06-09T05:32:26.961Z,100079
2018-06-09T05:34:56.545Z,100080
2018-06-09T05:37:25.391Z,100080
2018-06-09T05:39:54.241Z,100083
2018-06-09T05:42:23.834Z,100086
2018-06-09T05:44:52.680Z,100087
2018-06-09T05:47:21.545Z,100091
2018-06-09T05:49:51.124Z,100090
2018-06-09T05:52:20.723Z,100092
2018-06-09T05:54:49.571Z,100093
2018-06-09T05:57:18.420Z,100089
2018-06-09T05:59:47.273Z,100088
2018-06-09T06:02:16.148Z,100099
2018-06-09T06:04:44.992Z,100099
2018-06-09T06:07:13.841Z,100107
2018-06-09T06:09:42.679Z,100104
2018-06-09T06:12:12.267Z,100101
2018-06-09T06:14:41.148Z,100109
2018-06-09T06:17:10.000Z,100104
2018-06-09T06:19:38.859Z,100108
2018-06-09T06:22:07.711Z,100104
2018-06-09T06:24:36.570Z,100108
2018-06-09T06:27:05.427Z,100107
2018-06-09T06:29:34.278Z,100108
2018-06-09T06:32:03.132Z,100114
2018-06-09T06:34:31.982Z,100113
2018-06-09T06:37:01.568Z,100114
2018-06-09T06:39:30.407Z,100111
2018-06-09T06:41:59.252Z,100100
2018-06-09T06:44:28.088Z,100107
2018-06-09T06:46:56.937Z,100102
2018-06-09T06:49:25.779Z,100098
2018-06-09T06:51:54.621Z,100103
2018-06-09T06:54:24.209Z,100103
2018-06-09T06:56:53.069Z,100100
2018-06-09T06:59:21.912Z,100105
2018-06-09T07:01:50.774Z,100098
2018-06-09T07:04:19.612Z,100108
2018-06-09T07:06:48.459Z,100108
2018-06-09T07:09:17.324Z,100103
2018-06-09T07:11:46.174Z,100102
2018-06-09T07:14:15.026Z,100103
2018-06-09T07:16:44.617Z,100104
2018-06-09T07:19:13.467Z,100104
2018-06-09T07:21:42.311Z,100099
2018-06-09T07:24:11.159Z,100096
2018-06-09T07:26:40.013Z,100104
2018-06-09T07:29:09.596Z,100094
2018-06-09T07:31:38.478Z,100099
2018-06-09T07:34:07.294Z,100097
2018-06-09T07:36:36.876Z,100099
2018-06-09T07:39:05.734Z,100095
2018-06-09T07:41:34.582Z,100100
2018-06-09T07:44:03.441Z,100099
2018-06-09T07:46:32.276Z,100090
2018-06-09T07:49:01.130Z,100097
2018-06-09T07:51:29.977Z,100091
2018-06-09T07:53:58.821Z,100095
2018-06-09T07:56:27.663Z,100094
2018-06-09T07:58:56.506Z,100093
2018-06-09T08:01:26.096Z,100089
2018-06-09T08:03:55.682Z,100090
2018-06-09T08:06:24.530Z,100097
2018-06-09T08:08:53.378Z,100093
2018-06-09T08:11:22.221Z,100099
2018-06-09T08:13:51.059Z,100095
2018-06-09T08:16:20.652Z,100099
2018-06-09T08:18:49.511Z,100098
2018-06-09T08:21:18.386Z,100095
2018-06-09T08:23:47.246Z,100098
2018-06-09T08:26:16.832Z,100097
2018-06-09T08:28:45.673Z,100090
2018-06-09T08:31:14.519Z,100091
2018-06-09T08:33:44.116Z,100100
2018-06-09T08:36:13.060Z,100089
2018-06-09T08:38:41.800Z,100085
2018-06-09T08:41:10.649Z,100086
2018-06-09T08:43:39.512Z,100085
2018-06-09T08:46:08.354Z,100077
2018-06-09T08:48:37.208Z,100070
2018-06-09T08:51:06.050Z,100067
2018-06-09T08:53:35.663Z,100066
2018-06-09T08:56:05.251Z,100073
2018-06-09T08:58:34.108Z,100067
2018-06-09T09:01:02.985Z,100062
2018-06-09T09:03:31.825Z,100073
2018-06-09T09:06:00.689Z,100074
2018-06-09T09:08:29.537Z,100082
2018-06-09T09:10:58.388Z,100078
2018-06-09T09:13:27.810Z,100077
2018-06-09T09:15:56.663Z,100078
2018-06-09T09:18:25.508Z,100081
2018-06-09T09:20:54.355Z,100080
2018-06-09T09:23:23.204Z,100075
2018-06-09T09:25:52.106Z,100074
2018-06-09T09:28:21.639Z,100079
2018-06-09T09:30:50.495Z,100075
2018-06-09T09:33:19.345Z,100078
2018-06-09T09:35:48.936Z,100079
2018-06-09T09:38:17.787Z,100067
2018-06-09T09:40:46.629Z,100068
2018-06-09T09:43:16.216Z,100066
2018-06-09T09:45:45.066Z,100068
2018-06-09T09:48:13.917Z,100067
2018-06-09T09:50:43.569Z,100075
2018-06-09T09:53:12.413Z,100066
2018-06-09T09:55:42.009Z,100075
2018-06-09T09:58:11.616Z,100067
2018-06-09T10:00:40.452Z,100063
2018-06-09T10:03:09.310Z,100068
2018-06-09T10:05:38.159Z,100067
2018-06-09T10:08:07.008Z,100064
2018-06-09T10:10:35.856Z,100064
2018-06-09T10:13:04.709Z,100065
2018-06-09T10:15:33.557Z,100064
2018-06-09T10:18:02.393Z,100064
2018-06-09T10:20:31.241Z,100067
2018-06-09T10:23:00.075Z,100059
2018-06-09T10:25:28.931Z,100061
2018-06-09T10:27:57.768Z,100061
2018-06-09T10:30:26.618Z,100056
2018-06-09T10:32:55.470Z,100058
2018-06-09T10:35:24.322Z,100057
2018-06-09T10:37:53.168Z,100054
2018-06-09T10:40:22.012Z,100051
2018-06-09T10:42:50.855Z,100044
2018-06-09T10:45:19.742Z,100058
2018-06-09T10:47:48.547Z,100054
2018-06-09T10:50:17.429Z,100045
2018-06-09T10:52:46.278Z,100044
2018-06-09T10:55:15.131Z,100044
2018-06-09T10:57:43.974Z,100035
2018-06-09T11:00:12.822Z,100037
2018-06-09T11:02:41.687Z,100034
2018-06-09T11:05:10.549Z,100037
2018-06-09T11:07:39.388Z,100027
2018-06-09T11:10:08.260Z,100030
2018-06-09T11:12:37.082Z,100020
2018-06-09T11:15:05.953Z,100014
2018-06-09T11:17:34.812Z,100009
2018-06-09T11:20:03.658Z,100009
2018-06-09T11:22:33.101Z,100016
2018-06-09T11:25:01.937Z,100002
2018-06-09T11:27:30.787Z,100007
2018-06-09T11:29:59.646Z,100003
2018-06-09T11:32:28.563Z,100008
2018-06-09T11:34:57.351Z,100008
2018-06-09T11:37:26.215Z,100002
2018-06-09T11:39:55.075Z,100000
2018-06-09T11:42:23.909Z,100001
2018-06-09T11:44:52.751Z,99993
2018-06-09T11:47:22.206Z,99982
2018-06-09T11:49:51.052Z,99973
2018-06-09T11:52:20.637Z,99969
2018-06-09T11:54:49.466Z,99972
2018-06-09T11:57:18.313Z,99962
2018-06-09T11:59:47.167Z,99966
2018-06-09T12:02:16.000Z,99952
2018-06-09T12:04:44.845Z,99959
2018-06-09T12:07:13.680Z,99945
2018-06-09T12:09:42.545Z,99943
2018-06-09T12:12:11.380Z,99948
2018-06-09T12:14:40.964Z,99942
2018-06-09T12:17:09.836Z,99945
2018-06-09T12:19:38.660Z,99944
2018-06-09T12:22:07.506Z,99940
2018-06-09T12:24:36.346Z,99937
2018-06-09T12:27:05.950Z,99940
2018-06-09T12:29:35.543Z,99933
2018-06-09T12:32:04.392Z,99939
2018-06-09T12:34:33.242Z,99941
2018-06-09T12:37:02.832Z,99937
2018-06-09T12:39:32.408Z,99942
2018-06-09T12:42:01.262Z,99937
2018-06-09T12:44:30.101Z,99945
2018-06-09T12:46:58.939Z,99939
2018-06-09T12:49:27.778Z,99942
2018-06-09T12:51:56.627Z,99940
2018-06-09T12:54:25.467Z,99934
2018-06-09T12:56:54.303Z,99921
2018-06-09T12:59:23.156Z,99927
2018-06-09T13:01:51.994Z,99915
2018-06-09T13:04:20.860Z,99917
2018-06-09T13:06:49.697Z,99915
2018-06-09T13:09:18.534Z,99915
2018-06-09T13:11:47.373Z,99908
2018-06-09T13:14:16.211Z,99907
2018-06-09T13:16:45.047Z,99907
2018-06-09T13:19:13.948Z,99915
2018-06-09T13:21:42.724Z,99913
2018-06-09T13:24:11.566Z,99909
2018-06-09T13:26:40.431Z,99901
2018-06-09T13:29:10.020Z,99912
2018-06-09T13:31:38.855Z,99910
2018-06-09T13:34:07.699Z,99913
2018-06-09T13:36:36.556Z,99912
2018-06-09T13:39:05.407Z,99911
2018-06-09T13:41:34.256Z,99901
2018-06-09T13:44:03.090Z,99904
2018-06-09T13:46:31.929Z,99896
2018-06-09T13:49:00.780Z,99896
2018-06-09T13:51:29.616Z,99902
2018-06-09T13:53:58.459Z,99896
2018-06-09T13:56:27.295Z,99897
2018-06-09T13:58:56.126Z,99895
2018-06-09T14:01:25.038Z,99903
2018-06-09T14:03:53.823Z,99903
2018-06-09T14:06:22.677Z,99903
2018-06-09T14:08:51.512Z,99908
2018-06-09T14:11:20.344Z,99894
2018-06-09T14:13:49.193Z,99898
2018-06-09T14:16:18.032Z,99894
2018-06-09T14:18:46.880Z,99885
2018-06-09T14:21:15.715Z,99880
2018-06-09T14:23:44.552Z,99874
2018-06-09T14:26:13.391Z,99880
2018-06-09T14:28:42.230Z,99886
2018-06-09T14:31:11.067Z,99896
2018-06-09T14:33:39.904Z,99889
2018-06-09T14:36:08.743Z,99893
2018-06-09T14:38:37.588Z,99890
2018-06-09T14:41:06.439Z,99886
2018-06-09T14:43:35.277Z,99888
2018-06-09T14:46:04.113Z,99896
2018-06-09T14:48:32.960Z,99913
2018-06-09T14:51:01.799Z,99916
2018-06-09T14:53:30.644Z,99916
2018-06-09T14:55:59.487Z,99908
2018-06-09T14:58:28.325Z,99910
2018-06-09T15:00:57.161Z,99906
2018-06-09T15:03:26.000Z,99918
2018-06-09T15:05:54.831Z,99924
2018-06-09T15:08:23.669Z,99928
2018-06-09T15:10:52.493Z,99922
2018-06-09T15:13:21.340Z,99918
2018-06-09T15:15:50.196Z,99909
2018-06-09T15:18:19.055Z,99899
2018-06-09T15:20:47.893Z,99896
2018-06-09T15:23:16.739Z,99903
2018-06-09T15:25:45.577Z,99902
2018-06-09T15:28:14.491Z,99914
2018-06-09T15:30:43.250Z,99914
2018-06-09T15:33:12.089Z,99908
2018-06-09T15:35:40.917Z,99908
2018-06-09T15:38:09.761Z,99905
2018-06-09T15:40:38.588Z,99913
2018-06-09T15:43:07.430Z,99905
2018-06-09T15:45:36.299Z,99909
2018-06-09T15:48:05.134Z,99901
2018-06-09T15:50:33.975Z,99902
2018-06-09T15:53:02.818Z,99905
2018-06-09T15:55:31.663Z,99904
2018-06-09T15:58:00.583Z,99907
2018-06-09T16:00:29.413Z,99916
2018-06-09T16:02:58.243Z,99913
2018-06-09T16:05:27.078Z,99918
2018-06-09T16:07:55.924Z,99914
2018-06-09T16:10:24.768Z,99922
2018-06-09T16:12:53.597Z,99925
2018-06-09T16:15:22.437Z,99924
2018-06-09T16:17:51.280Z,99926
2018-06-09T16:20:20.109Z,99929
2018-06-09T16:22:48.941Z,99931
2018-06-09T16:25:17.771Z,99927
2018-06-09T16:27:46.616Z,99934
2018-06-09T16:30:15.467Z,99935
2018-06-09T16:32:44.370Z,99942
2018-06-09T16:35:13.150Z,99962
2018-06-09T16:37:41.995Z,99962
2018-06-09T16:40:11.429Z,99969
2018-06-09T16:42:40.270Z,99976
2018-06-09T16:45:09.176Z,99987
2018-06-09T16:47:38.039Z,99997
2018-06-09T16:50:06.859Z,99995
2018-06-09T16:52:35.719Z,99992
2018-06-09T16:55:04.562Z,99999
2018-06-09T16:57:33.417Z,100000
2018-06-09T17:00:03.023Z,100001
2018-06-09T17:02:31.881Z,100004
2018-06-09T17:05:00.716Z,100003
2018-06-09T17:07:30.298Z,100002
2018-06-09T17:09:59.147Z,100003
2018-06-09T17:12:28.003Z,99996
2018-06-09T17:14:56.843Z,99991
2018-06-09T17:17:25.697Z,99987
2018-06-09T17:19:55.274Z,99990
2018-06-09T17:22:24.116Z,99994
2018-06-09T17:24:52.971Z,100001
2018-06-09T17:27:22.574Z,100018
2018-06-09T17:29:51.435Z,100021
2018-06-09T17:32:20.280Z,100021
2018-06-09T17:34:49.137Z,100015
2018-06-09T17:37:18.748Z,100009
2018-06-09T17:39:48.342Z,100002
2018-06-09T17:42:17.780Z,99995
2018-06-09T17:44:46.619Z,100000
2018-06-09T17:47:15.466Z,99988
2018-06-09T17:49:44.337Z,99980
2018-06-09T17:52:13.911Z,99968
2018-06-09T17:54:42.748Z,99964
2018-06-09T17:57:11.586Z,99961
2018-06-09T17:59:41.178Z,99975
2018-06-09T18:02:10.011Z,99964
2018-06-09T18:04:39.605Z,99959
2018-06-09T18:07:08.444Z,99963
2018-06-09T18:09:37.372Z,99978
2018-06-09T18:12:06.967Z,99985
2018-06-09T18:14:35.807Z,99994
2018-06-09T18:17:05.395Z,100015
2018-06-09T18:19:35.008Z,100018
2018-06-09T18:22:03.839Z,100029
2018-06-09T18:24:32.675Z,100036
2018-06-09T18:27:02.282Z,100039
2018-06-09T18:29:31.112Z,100049
2018-06-09T18:31:59.957Z,100038
2018-06-09T18:34:29.551Z,100030
2018-06-09T18:36:58.391Z,100025
2018-06-09T18:39:27.277Z,100014
2018-06-09T18:41:56.105Z,100013
2018-06-09T18:44:24.977Z,100004
2018-06-09T18:46:53.806Z,100013
2018-06-09T18:49:22.674Z,100019
2018-06-09T18:51:51.508Z,100027
2018-06-09T18:54:21.089Z,100025
2018-06-09T18:56:50.567Z,100024
2018-06-09T18:59:20.101Z,100020
2018-06-09T19:01:49.687Z,100019
2018-06-09T19:04:18.532Z,100024
2018-06-09T19:06:47.382Z,100029
2018-06-09T19:09:16.235Z,100029
2018-06-09T19:11:45.097Z,100032
2018-06-09T19:14:13.949Z,100036
2018-06-09T19:16:42.808Z,100035
2018-06-09T19:19:11.659Z,100032
2018-06-09T19:21:40.538Z,100037
2018-06-09T19:24:09.383Z,100040
2018-06-09T19:26:38.237Z,100038
2018-06-09T19:29:07.086Z,100038
2018-06-09T19:31:35.965Z,100025
2018-06-09T19:34:04.801Z,100037
2018-06-09T19:36:33.637Z,100040
2018-06-09T19:39:02.475Z,100045
2018-06-09T19:41:31.329Z,100047
2018-06-09T19:44:00.179Z,100055
2018-06-09T19:46:29.037Z,100059
2018-06-09T19:48:57.893Z,100066
2018-06-09T19:51:27.375Z,100063
2018-06-09T19:53:56.231Z,100068
2018-06-09T19:56:25.107Z,100069
2018-06-09T19:58:53.958Z,100075
2018-06-09T20:01:22.800Z,100085
2018-06-09T20:03:51.647Z,100090
2018-06-09T20:06:20.529Z,100094
2018-06-09T20:08:49.379Z,100100
2018-06-09T20:11:18.273Z,100110
2018-06-09T20:13:47.074Z,100106
2018-06-09T20:16:15.923Z,100113
2018-06-09T20:18:44.782Z,100107
2018-06-09T20:21:13.654Z,100117
2018-06-09T20:23:42.498Z,100114
2018-06-09T20:26:11.375Z,100113
2018-06-09T20:28:40.978Z,100108
2018-06-09T20:31:10.569Z,100103
2018-06-09T20:33:39.421Z,100101
2018-06-09T20:36:08.281Z,100105
2018-06-09T20:38:37.121Z,100099
2018-06-09T20:41:05.969Z,100101
2018-06-09T20:43:34.822Z,100097
2018-06-09T20:46:03.707Z,100097
2018-06-09T20:48:32.518Z,100101
2018-06-09T20:51:01.372Z,100093
2018-06-09T20:53:30.246Z,100098
2018-06-09T20:55:59.180Z,100112
2018-06-09T20:58:28.000Z,100115
2018-06-09T21:00:56.854Z,100120
2018-06-09T21:03:26.437Z,100119
2018-06-09T21:05:56.079Z,100126
2018-06-09T21:08:24.867Z,100117
2018-06-09T21:10:53.712Z,100120
2018-06-09T21:13:22.575Z,100117
2018-06-09T21:15:51.402Z,100103
2018-06-09T21:18:20.269Z,100104
2018-06-09T21:20:49.129Z,100106
2018-06-09T21:23:18.032Z,100105
2018-06-09T21:25:46.871Z,100107
2018-06-09T21:28:15.692Z,100099
2018-06-09T21:30:44.532Z,100096
2018-06-09T21:33:13.393Z,100095
2018-06-09T21:35:54.010Z,100089
2018-06-09T21:38:22.865Z,100082
2018-06-09T21:40:51.757Z,100067
2018-06-09T21:43:20.569Z,100068
2018-06-09T21:45:49.427Z,100077
2018-06-09T21:48:18.275Z,100087
2018-06-09T21:50:47.141Z,100077
2018-06-09T21:53:15.999Z,100067
2018-06-09T21:55:44.857Z,100064
2018-06-09T21:58:13.712Z,100084
2018-06-09T22:00:42.578Z,100087
2018-06-09T22:03:11.420Z,100084
2018-06-09T22:05:40.269Z,100109
2018-06-09T22:08:09.127Z,100076
2018-06-09T22:10:37.985Z,100075
2018-06-09T22:13:06.821Z,100080
2018-06-09T22:15:35.674Z,100080
2018-06-09T22:18:04.551Z,100077
2018-06-09T22:20:34.111Z,100076
2018-06-09T22:23:02.973Z,100082
2018-06-09T22:25:31.812Z,100097
2018-06-09T22:28:00.667Z,100103
2018-06-09T22:30:29.538Z,100115
2018-06-09T22:32:58.390Z,100122
2018-06-09T22:35:27.986Z,100121
2018-06-09T22:37:56.843Z,100124
2018-06-09T22:40:25.699Z,100117
2018-06-09T22:42:54.564Z,100122
2018-06-09T22:45:23.405Z,100115
2018-06-09T22:47:52.291Z,100115
2018-06-09T22:50:21.110Z,100109
2018-06-09T22:52:49.972Z,100108
2018-06-09T22:55:18.807Z,100108
2018-06-09T22:57:48.453Z,100109
2018-06-09T23:00:17.825Z,100113
2018-06-09T23:02:47.420Z,100107
2018-06-09T23:05:17.012Z,100099
2018-06-09T23:07:45.867Z,100092
2018-06-09T23:10:14.716Z,100093
2018-06-09T23:12:44.313Z,100088
2018-06-09T23:15:13.148Z,100084
2018-06-09T23:17:41.989Z,100083
2018-06-09T23:20:10.853Z,100083
2018-06-09T23:22:39.686Z,100082
2018-06-09T23:25:08.543Z,100076
2018-06-09T23:27:37.387Z,100076
2018-06-09T23:30:06.238Z,100077
2018-06-09T23:32:35.819Z,100073
2018-06-09T23:35:04.662Z,100077
2018-06-09T23:37:33.509Z,100077
2018-06-09T23:40:02.383Z,100078
2018-06-09T23:42:31.228Z,100078
2018-06-09T23:45:00.132Z,100076
2018-06-09T23:47:28.928Z,100075
2018-06-09T23:49:57.767Z,100078
2018-06-09T23:52:39.812Z,100069
2018-06-09T23:55:08.656Z,100066
2018-06-09T23:57:38.272Z,100070
